Drew, Louisiana
Current Conditions -  °F | °C
As of 3:07 AM on Sunday 26 Oct 2014 (Local Time) from KMLU Reporting Station
Haze Haze  
Wind Chill: 58°   Ceiling: Unl
Heat Index: 58°   Visibility: 2.5mi
Dew Point: 56°   Wind: 0mph
Humidity: 93%   Direction: NA
Pressure: 30.05"   Gusts: NA
Location:  32.5473°N, 92.2007°W
Report Text: KMLU 260807Z AUTO 00000KT 2 1/2SM BR CLR 14/13 A3005 RMK AO2 T01440133
Loading
Personal Weather Stations






























Interactive Weather Map
Tropical Storm Tracking
New forecast layout! Learn more

10-Day Weather Forecast

Advertisements
Track Severe Weather on mobile